EGKB

London Biggin Hill Airport

London, United Kingdom
METAR EGKB 221750Z 21012KT CAVOK 16/10 Q1009
Observed Flight Rules
Apr-22 @ 17:50 UTC (33 minutes ago) Visual Flight Rules
Wind Visibility Clouds
210° at 12 knots 10,000+ meters
  • Clear skies
Temperatures Readings
Current 16°C / 61°F
Dewpoint 10°C / 50°F
Humidity 68%
Altimeter 29.79" Hg
Pressure 1009 hPa
Elevation 183
METAR EGKB 221750Z 21012KT CAVOK 16/10 Q1009
Observed Flight Rules
Apr-22 @ 17:50 UTC
(33 minutes ago)
VFR
Wind Visibility
210° at 12 knots 10,000+ meters
Clouds
  • Clear skies
Temperature Dewpoint
16°C / 61°F 10°C / 50°F
Humidity Altimeter Pressure
68% 29.79" Hg 1009 hPa